sensor_id;sensor_type;location;lat;lon;timestamp;temperature;humidity
35111;DHT22;21290;50.158;8.658;2024-02-26T00:01:46;6.40;99.90
35111;DHT22;21290;50.158;8.658;2024-02-26T00:04:13;6.40;99.90
35111;DHT22;21290;50.158;8.658;2024-02-26T00:06:40;6.40;99.90
35111;DHT22;21290;50.158;8.658;2024-02-26T00:09:11;6.40;99.90
35111;DHT22;21290;50.158;8.658;2024-02-26T00:11:37;6.50;99.90
35111;DHT22;21290;50.158;8.658;2024-02-26T00:14:04;6.50;99.90
35111;DHT22;21290;50.158;8.658;2024-02-26T00:16:31;6.50;99.90
35111;DHT22;21290;50.158;8.658;2024-02-26T00:18:58;6.50;99.90
35111;DHT22;21290;50.158;8.658;2024-02-26T00:21:25;6.50;99.90
35111;DHT22;21290;50.158;8.658;2024-02-26T00:23:55;6.50;99.90
35111;DHT22;21290;50.158;8.658;2024-02-26T00:26:21;6.50;99.90
35111;DHT22;21290;50.158;8.658;2024-02-26T00:28:48;6.50;99.90
35111;DHT22;21290;50.158;8.658;2024-02-26T00:31:15;6.50;99.90
35111;DHT22;21290;50.158;8.658;2024-02-26T00:33:42;6.50;99.90
35111;DHT22;21290;50.158;8.658;2024-02-26T00:36:10;6.50;99.90
35111;DHT22;21290;50.158;8.658;2024-02-26T00:38:37;6.60;99.90
35111;DHT22;21290;50.158;8.658;2024-02-26T00:41:04;6.50;99.90
35111;DHT22;21290;50.158;8.658;2024-02-26T00:43:30;6.50;99.90
35111;DHT22;21290;50.158;8.658;2024-02-26T00:45:57;6.60;99.90
35111;DHT22;21290;50.158;8.658;2024-02-26T00:48:24;6.60;99.90
35111;DHT22;21290;50.158;8.658;2024-02-26T00:50:52;6.60;99.90
35111;DHT22;21290;50.158;8.658;2024-02-26T00:53:19;6.60;99.90
35111;DHT22;21290;50.158;8.658;2024-02-26T00:55:45;6.60;99.90
35111;DHT22;21290;50.158;8.658;2024-02-26T00:58:12;6.60;99.90
35111;DHT22;21290;50.158;8.658;2024-02-26T01:00:39;6.60;99.90
35111;DHT22;21290;50.158;8.658;2024-02-26T01:03:06;6.60;99.90
35111;DHT22;21290;50.158;8.658;2024-02-26T01:05:32;6.60;99.90
35111;DHT22;21290;50.158;8.658;2024-02-26T01:07:59;6.60;99.90
35111;DHT22;21290;50.158;8.658;2024-02-26T01:10:26;6.60;99.90
35111;DHT22;21290;50.158;8.658;2024-02-26T01:12:53;6.60;99.90
35111;DHT22;21290;50.158;8.658;2024-02-26T01:15:20;6.60;99.90
35111;DHT22;21290;50.158;8.658;2024-02-26T01:17:50;6.60;99.90
35111;DHT22;21290;50.158;8.658;2024-02-26T01:20:17;6.60;99.90
35111;DHT22;21290;50.158;8.658;2024-02-26T01:22:44;6.50;99.90
35111;DHT22;21290;50.158;8.658;2024-02-26T01:25:11;6.50;99.90
35111;DHT22;21290;50.158;8.658;2024-02-26T01:27:39;6.50;99.90
35111;DHT22;21290;50.158;8.658;2024-02-26T01:30:08;6.50;99.90
35111;DHT22;21290;50.158;8.658;2024-02-26T01:32:34;6.50;99.90
35111;DHT22;21290;50.158;8.658;2024-02-26T01:35:02;6.40;99.90
35111;DHT22;21290;50.158;8.658;2024-02-26T01:37:36;6.50;99.90
35111;DHT22;21290;50.158;8.658;2024-02-26T01:40:03;6.50;99.90
35111;DHT22;21290;50.158;8.658;2024-02-26T01:42:33;6.50;99.90
35111;DHT22;21290;50.158;8.658;2024-02-26T01:45:00;6.50;99.90
35111;DHT22;21290;50.158;8.658;2024-02-26T01:47:27;6.50;99.90
35111;DHT22;21290;50.158;8.658;2024-02-26T01:49:55;6.50;99.90
35111;DHT22;21290;50.158;8.658;2024-02-26T01:52:22;6.50;99.90
35111;DHT22;21290;50.158;8.658;2024-02-26T01:54:49;6.50;99.90
35111;DHT22;21290;50.158;8.658;2024-02-26T01:57:16;6.50;99.90
35111;DHT22;21290;50.158;8.658;2024-02-26T01:59:43;6.50;99.90
35111;DHT22;21290;50.158;8.658;2024-02-26T02:02:10;6.50;99.90
35111;DHT22;21290;50.158;8.658;2024-02-26T02:04:38;6.50;99.90
35111;DHT22;21290;50.158;8.658;2024-02-26T02:07:05;6.50;99.90
35111;DHT22;21290;50.158;8.658;2024-02-26T02:09:32;6.50;99.90
35111;DHT22;21290;50.158;8.658;2024-02-26T02:12:00;6.50;99.90
35111;DHT22;21290;50.158;8.658;2024-02-26T02:14:27;6.50;99.90
35111;DHT22;21290;50.158;8.658;2024-02-26T02:16:54;6.50;99.90
35111;DHT22;21290;50.158;8.658;2024-02-26T02:19:20;6.50;99.90
35111;DHT22;21290;50.158;8.658;2024-02-26T02:21:47;6.60;99.90
35111;DHT22;21290;50.158;8.658;2024-02-26T02:24:14;6.60;99.90
35111;DHT22;21290;50.158;8.658;2024-02-26T02:26:41;6.60;99.90
35111;DHT22;21290;50.158;8.658;2024-02-26T02:29:08;6.50;99.90
35111;DHT22;21290;50.158;8.658;2024-02-26T02:31:36;6.50;99.90
35111;DHT22;21290;50.158;8.658;2024-02-26T02:34:02;6.50;99.90
35111;DHT22;21290;50.158;8.658;2024-02-26T02:36:29;6.50;99.90
35111;DHT22;21290;50.158;8.658;2024-02-26T02:38:57;6.50;99.90
35111;DHT22;21290;50.158;8.658;2024-02-26T02:41:23;6.50;99.90
35111;DHT22;21290;50.158;8.658;2024-02-26T02:43:50;6.50;99.90
35111;DHT22;21290;50.158;8.658;2024-02-26T02:46:17;6.50;99.90
35111;DHT22;21290;50.158;8.658;2024-02-26T02:48:44;6.40;99.90
35111;DHT22;21290;50.158;8.658;2024-02-26T02:51:11;6.50;99.90
35111;DHT22;21290;50.158;8.658;2024-02-26T02:53:38;6.50;99.90
35111;DHT22;21290;50.158;8.658;2024-02-26T02:56:05;6.50;99.90
35111;DHT22;21290;50.158;8.658;2024-02-26T02:58:32;6.40;99.90
35111;DHT22;21290;50.158;8.658;2024-02-26T03:00:59;6.50;99.90
35111;DHT22;21290;50.158;8.658;2024-02-26T03:03:27;6.50;99.90
35111;DHT22;21290;50.158;8.658;2024-02-26T03:05:55;6.50;99.90
35111;DHT22;21290;50.158;8.658;2024-02-26T03:08:22;6.50;99.90
35111;DHT22;21290;50.158;8.658;2024-02-26T03:10:50;6.50;99.90
35111;DHT22;21290;50.158;8.658;2024-02-26T03:13:17;6.40;99.90
35111;DHT22;21290;50.158;8.658;2024-02-26T03:15:43;6.50;99.90
35111;DHT22;21290;50.158;8.658;2024-02-26T03:18:10;6.50;99.90
35111;DHT22;21290;50.158;8.658;2024-02-26T03:20:37;6.50;99.90
35111;DHT22;21290;50.158;8.658;2024-02-26T03:23:04;6.50;99.90
35111;DHT22;21290;50.158;8.658;2024-02-26T03:25:31;6.40;99.90
35111;DHT22;21290;50.158;8.658;2024-02-26T03:27:57;6.40;99.90
35111;DHT22;21290;50.158;8.658;2024-02-26T03:30:24;6.50;99.90
35111;DHT22;21290;50.158;8.658;2024-02-26T03:32:51;6.40;99.90
35111;DHT22;21290;50.158;8.658;2024-02-26T03:35:18;6.40;99.90
35111;DHT22;21290;50.158;8.658;2024-02-26T03:37:46;6.50;99.90
35111;DHT22;21290;50.158;8.658;2024-02-26T03:40:13;6.50;99.90
35111;DHT22;21290;50.158;8.658;2024-02-26T03:42:41;6.50;99.90
35111;DHT22;21290;50.158;8.658;2024-02-26T03:45:08;6.50;99.90
35111;DHT22;21290;50.158;8.658;2024-02-26T03:47:37;6.50;99.90
35111;DHT22;21290;50.158;8.658;2024-02-26T03:50:05;6.50;99.90
35111;DHT22;21290;50.158;8.658;2024-02-26T03:52:33;6.50;99.90
35111;DHT22;21290;50.158;8.658;2024-02-26T03:55:00;6.40;99.90
35111;DHT22;21290;50.158;8.658;2024-02-26T03:57:27;6.50;99.90
35111;DHT22;21290;50.158;8.658;2024-02-26T03:59:53;6.50;99.90
35111;DHT22;21290;50.158;8.658;2024-02-26T04:02:20;6.50;99.90
35111;DHT22;21290;50.158;8.658;2024-02-26T04:04:47;6.50;99.90
35111;DHT22;21290;50.158;8.658;2024-02-26T04:07:14;6.50;99.90
35111;DHT22;21290;50.158;8.658;2024-02-26T04:09:41;6.50;99.90
35111;DHT22;21290;50.158;8.658;2024-02-26T04:12:08;6.40;99.90
35111;DHT22;21290;50.158;8.658;2024-02-26T04:14:36;6.40;99.90
35111;DHT22;21290;50.158;8.658;2024-02-26T04:17:03;6.50;99.90
35111;DHT22;21290;50.158;8.658;2024-02-26T04:19:29;6.40;99.90
35111;DHT22;21290;50.158;8.658;2024-02-26T04:21:56;6.40;99.90
35111;DHT22;21290;50.158;8.658;2024-02-26T04:24:23;6.40;99.90
35111;DHT22;21290;50.158;8.658;2024-02-26T04:26:50;6.40;99.90
35111;DHT22;21290;50.158;8.658;2024-02-26T04:29:16;6.40;99.90
35111;DHT22;21290;50.158;8.658;2024-02-26T04:31:43;6.50;99.90
35111;DHT22;21290;50.158;8.658;2024-02-26T04:34:10;6.50;99.90
35111;DHT22;21290;50.158;8.658;2024-02-26T04:36:40;6.50;99.90
35111;DHT22;21290;50.158;8.658;2024-02-26T04:39:07;6.50;99.90
35111;DHT22;21290;50.158;8.658;2024-02-26T04:41:33;6.50;99.90
35111;DHT22;21290;50.158;8.658;2024-02-26T04:44:00;6.50;99.90
35111;DHT22;21290;50.158;8.658;2024-02-26T04:46:27;6.50;99.90
35111;DHT22;21290;50.158;8.658;2024-02-26T04:48:54;6.50;99.90
35111;DHT22;21290;50.158;8.658;2024-02-26T04:51:23;6.50;99.90
35111;DHT22;21290;50.158;8.658;2024-02-26T04:53:50;6.50;99.90
35111;DHT22;21290;50.158;8.658;2024-02-26T04:56:17;6.50;99.90
35111;DHT22;21290;50.158;8.658;2024-02-26T04:58:44;6.50;99.90
35111;DHT22;21290;50.158;8.658;2024-02-26T05:01:11;6.50;99.90
35111;DHT22;21290;50.158;8.658;2024-02-26T05:03:38;6.50;99.90
35111;DHT22;21290;50.158;8.658;2024-02-26T05:06:05;6.50;99.90
35111;DHT22;21290;50.158;8.658;2024-02-26T05:08:32;6.50;99.90
35111;DHT22;21290;50.158;8.658;2024-02-26T05:11:02;6.50;99.90
35111;DHT22;21290;50.158;8.658;2024-02-26T05:13:29;6.40;99.90
35111;DHT22;21290;50.158;8.658;2024-02-26T05:15:56;6.40;99.90
35111;DHT22;21290;50.158;8.658;2024-02-26T05:18:23;6.40;99.90
35111;DHT22;21290;50.158;8.658;2024-02-26T05:20:50;6.40;99.90
35111;DHT22;21290;50.158;8.658;2024-02-26T05:23:16;6.40;99.90
35111;DHT22;21290;50.158;8.658;2024-02-26T05:25:45;6.30;99.90
35111;DHT22;21290;50.158;8.658;2024-02-26T05:28:13;6.30;99.90
35111;DHT22;21290;50.158;8.658;2024-02-26T05:30:42;6.30;99.90
35111;DHT22;21290;50.158;8.658;2024-02-26T05:33:09;6.30;99.90
35111;DHT22;21290;50.158;8.658;2024-02-26T05:35:38;6.30;99.90
35111;DHT22;21290;50.158;8.658;2024-02-26T05:38:05;6.20;99.90
35111;DHT22;21290;50.158;8.658;2024-02-26T05:40:32;6.20;99.90
35111;DHT22;21290;50.158;8.658;2024-02-26T05:42:59;6.30;99.90
35111;DHT22;21290;50.158;8.658;2024-02-26T05:45:27;6.30;99.90
35111;DHT22;21290;50.158;8.658;2024-02-26T05:47:54;6.30;99.90
35111;DHT22;21290;50.158;8.658;2024-02-26T05:50:21;6.30;99.90
35111;DHT22;21290;50.158;8.658;2024-02-26T05:52:47;6.30;99.90
35111;DHT22;21290;50.158;8.658;2024-02-26T05:55:14;6.20;99.90
35111;DHT22;21290;50.158;8.658;2024-02-26T05:57:41;6.30;99.90
35111;DHT22;21290;50.158;8.658;2024-02-26T06:00:08;6.20;99.90
35111;DHT22;21290;50.158;8.658;2024-02-26T06:02:39;6.30;99.90
35111;DHT22;21290;50.158;8.658;2024-02-26T06:05:06;6.40;99.90
35111;DHT22;21290;50.158;8.658;2024-02-26T06:07:35;6.50;99.90
35111;DHT22;21290;50.158;8.658;2024-02-26T06:10:05;6.50;99.90
35111;DHT22;21290;50.158;8.658;2024-02-26T06:12:35;6.50;99.90
35111;DHT22;21290;50.158;8.658;2024-02-26T06:15:02;6.60;99.90
35111;DHT22;21290;50.158;8.658;2024-02-26T06:17:31;6.60;99.90
35111;DHT22;21290;50.158;8.658;2024-02-26T06:19:58;6.60;99.90
35111;DHT22;21290;50.158;8.658;2024-02-26T06:22:26;6.70;99.90
35111;DHT22;21290;50.158;8.658;2024-02-26T06:24:53;6.60;99.90
35111;DHT22;21290;50.158;8.658;2024-02-26T06:27:20;6.70;99.90
35111;DHT22;21290;50.158;8.658;2024-02-26T06:29:48;6.70;99.90
35111;DHT22;21290;50.158;8.658;2024-02-26T06:32:15;6.60;99.90
35111;DHT22;21290;50.158;8.658;2024-02-26T06:34:42;6.60;99.90
35111;DHT22;21290;50.158;8.658;2024-02-26T06:37:09;6.60;99.90
35111;DHT22;21290;50.158;8.658;2024-02-26T06:39:35;6.60;99.90
35111;DHT22;21290;50.158;8.658;2024-02-26T06:42:02;6.60;99.90
35111;DHT22;21290;50.158;8.658;2024-02-26T06:44:29;6.60;99.90
35111;DHT22;21290;50.158;8.658;2024-02-26T06:46:59;6.60;99.90
35111;DHT22;21290;50.158;8.658;2024-02-26T06:49:26;6.60;99.90
35111;DHT22;21290;50.158;8.658;2024-02-26T06:51:54;6.50;99.90
35111;DHT22;21290;50.158;8.658;2024-02-26T06:54:20;6.60;99.90
35111;DHT22;21290;50.158;8.658;2024-02-26T06:56:47;6.50;99.90
35111;DHT22;21290;50.158;8.658;2024-02-26T06:59:14;6.40;99.90
35111;DHT22;21290;50.158;8.658;2024-02-26T07:01:41;6.50;99.90
35111;DHT22;21290;50.158;8.658;2024-02-26T07:04:08;6.50;99.90
35111;DHT22;21290;50.158;8.658;2024-02-26T07:06:37;6.40;99.90
35111;DHT22;21290;50.158;8.658;2024-02-26T07:09:04;6.40;99.90
35111;DHT22;21290;50.158;8.658;2024-02-26T07:11:31;6.40;99.90
35111;DHT22;21290;50.158;8.658;2024-02-26T07:13:58;6.30;99.90
35111;DHT22;21290;50.158;8.658;2024-02-26T07:16:25;6.30;99.90
35111;DHT22;21290;50.158;8.658;2024-02-26T07:18:53;6.20;99.90
35111;DHT22;21290;50.158;8.658;2024-02-26T07:21:20;6.20;99.90
35111;DHT22;21290;50.158;8.658;2024-02-26T07:23:47;6.20;99.90
35111;DHT22;21290;50.158;8.658;2024-02-26T07:26:14;6.20;99.90
35111;DHT22;21290;50.158;8.658;2024-02-26T07:28:40;6.20;99.90
35111;DHT22;21290;50.158;8.658;2024-02-26T07:31:07;6.20;99.90
35111;DHT22;21290;50.158;8.658;2024-02-26T07:33:34;6.20;99.90
35111;DHT22;21290;50.158;8.658;2024-02-26T07:36:01;6.10;99.90
35111;DHT22;21290;50.158;8.658;2024-02-26T07:38:28;6.20;99.90
35111;DHT22;21290;50.158;8.658;2024-02-26T07:41:08;6.20;99.90
35111;DHT22;21290;50.158;8.658;2024-02-26T07:43:35;6.20;99.90
35111;DHT22;21290;50.158;8.658;2024-02-26T07:46:02;6.20;99.90
35111;DHT22;21290;50.158;8.658;2024-02-26T07:48:29;6.20;99.90
35111;DHT22;21290;50.158;8.658;2024-02-26T07:50:56;6.10;99.90
35111;DHT22;21290;50.158;8.658;2024-02-26T07:53:23;6.10;99.90
35111;DHT22;21290;50.158;8.658;2024-02-26T07:55:49;6.20;99.90
35111;DHT22;21290;50.158;8.658;2024-02-26T07:58:16;6.20;99.90
35111;DHT22;21290;50.158;8.658;2024-02-26T08:00:43;6.20;99.90
35111;DHT22;21290;50.158;8.658;2024-02-26T08:03:10;6.20;99.90
35111;DHT22;21290;50.158;8.658;2024-02-26T08:05:37;6.30;99.90
35111;DHT22;21290;50.158;8.658;2024-02-26T08:08:07;6.30;99.90
35111;DHT22;21290;50.158;8.658;2024-02-26T08:10:34;6.30;99.90
35111;DHT22;21290;50.158;8.658;2024-02-26T08:13:01;6.30;99.90
35111;DHT22;21290;50.158;8.658;2024-02-26T08:15:32;6.30;99.90
35111;DHT22;21290;50.158;8.658;2024-02-26T08:18:03;6.30;99.90
35111;DHT22;21290;50.158;8.658;2024-02-26T08:20:31;6.40;99.90
35111;DHT22;21290;50.158;8.658;2024-02-26T08:22:58;6.40;99.90
35111;DHT22;21290;50.158;8.658;2024-02-26T08:25:25;6.40;99.90
35111;DHT22;21290;50.158;8.658;2024-02-26T08:27:52;6.50;99.90
35111;DHT22;21290;50.158;8.658;2024-02-26T08:30:19;6.50;99.90
35111;DHT22;21290;50.158;8.658;2024-02-26T08:32:47;6.60;99.90
35111;DHT22;21290;50.158;8.658;2024-02-26T08:35:18;6.70;99.90
35111;DHT22;21290;50.158;8.658;2024-02-26T08:37:46;6.70;99.90
35111;DHT22;21290;50.158;8.658;2024-02-26T08:40:14;6.80;99.90
35111;DHT22;21290;50.158;8.658;2024-02-26T08:42:40;6.90;99.90
35111;DHT22;21290;50.158;8.658;2024-02-26T08:45:08;7.00;99.90
35111;DHT22;21290;50.158;8.658;2024-02-26T08:47:35;7.10;99.90
35111;DHT22;21290;50.158;8.658;2024-02-26T08:50:02;7.30;99.90
35111;DHT22;21290;50.158;8.658;2024-02-26T08:52:29;7.30;99.90
35111;DHT22;21290;50.158;8.658;2024-02-26T08:54:56;7.40;99.90
35111;DHT22;21290;50.158;8.658;2024-02-26T08:57:24;7.40;99.90
35111;DHT22;21290;50.158;8.658;2024-02-26T08:59:53;7.40;99.90
35111;DHT22;21290;50.158;8.658;2024-02-26T09:02:20;7.40;99.90
35111;DHT22;21290;50.158;8.658;2024-02-26T09:04:47;7.40;99.90
35111;DHT22;21290;50.158;8.658;2024-02-26T09:07:14;7.50;99.90
35111;DHT22;21290;50.158;8.658;2024-02-26T09:09:41;7.50;99.90
35111;DHT22;21290;50.158;8.658;2024-02-26T09:12:08;7.50;99.90
35111;DHT22;21290;50.158;8.658;2024-02-26T09:14:35;7.60;99.90
35111;DHT22;21290;50.158;8.658;2024-02-26T09:17:02;7.60;99.90
35111;DHT22;21290;50.158;8.658;2024-02-26T09:19:28;7.60;99.90
35111;DHT22;21290;50.158;8.658;2024-02-26T09:21:55;7.70;99.90
35111;DHT22;21290;50.158;8.658;2024-02-26T09:24:24;7.80;99.90
35111;DHT22;21290;50.158;8.658;2024-02-26T09:26:51;7.70;99.90
35111;DHT22;21290;50.158;8.658;2024-02-26T09:29:18;7.80;99.90
35111;DHT22;21290;50.158;8.658;2024-02-26T09:31:45;7.80;99.90
35111;DHT22;21290;50.158;8.658;2024-02-26T09:34:14;7.80;99.90
35111;DHT22;21290;50.158;8.658;2024-02-26T09:36:41;7.90;99.90
35111;DHT22;21290;50.158;8.658;2024-02-26T09:39:08;7.90;99.90
35111;DHT22;21290;50.158;8.658;2024-02-26T09:41:38;8.00;99.90
35111;DHT22;21290;50.158;8.658;2024-02-26T09:44:06;8.10;99.90
35111;DHT22;21290;50.158;8.658;2024-02-26T09:46:34;8.20;99.90
35111;DHT22;21290;50.158;8.658;2024-02-26T09:49:01;8.20;99.90
35111;DHT22;21290;50.158;8.658;2024-02-26T09:51:28;8.30;99.90
35111;DHT22;21290;50.158;8.658;2024-02-26T09:53:56;8.40;99.90
35111;DHT22;21290;50.158;8.658;2024-02-26T09:56:26;8.40;99.90
35111;DHT22;21290;50.158;8.658;2024-02-26T09:58:54;8.50;99.90
35111;DHT22;21290;50.158;8.658;2024-02-26T10:01:22;8.70;99.90
35111;DHT22;21290;50.158;8.658;2024-02-26T10:03:57;8.80;99.90
35111;DHT22;21290;50.158;8.658;2024-02-26T10:06:26;8.90;99.90
35111;DHT22;21290;50.158;8.658;2024-02-26T10:08:55;9.00;99.90
35111;DHT22;21290;50.158;8.658;2024-02-26T10:11:23;9.10;99.90
35111;DHT22;21290;50.158;8.658;2024-02-26T10:13:50;9.10;99.90
35111;DHT22;21290;50.158;8.658;2024-02-26T10:16:17;9.20;99.90
35111;DHT22;21290;50.158;8.658;2024-02-26T10:18:51;9.30;99.90
35111;DHT22;21290;50.158;8.658;2024-02-26T10:21:25;9.30;99.90
35111;DHT22;21290;50.158;8.658;2024-02-26T10:23:52;9.30;99.90
35111;DHT22;21290;50.158;8.658;2024-02-26T10:26:20;9.40;99.90
35111;DHT22;21290;50.158;8.658;2024-02-26T10:28:47;9.50;99.90
35111;DHT22;21290;50.158;8.658;2024-02-26T10:31:19;9.50;99.90
35111;DHT22;21290;50.158;8.658;2024-02-26T10:33:46;9.50;99.90
35111;DHT22;21290;50.158;8.658;2024-02-26T10:36:13;9.40;99.90
35111;DHT22;21290;50.158;8.658;2024-02-26T10:38:40;9.40;99.90
35111;DHT22;21290;50.158;8.658;2024-02-26T10:41:07;9.30;99.90
35111;DHT22;21290;50.158;8.658;2024-02-26T10:43:39;9.40;99.90
35111;DHT22;21290;50.158;8.658;2024-02-26T10:46:06;9.30;99.90
35111;DHT22;21290;50.158;8.658;2024-02-26T10:48:34;9.30;99.90
35111;DHT22;21290;50.158;8.658;2024-02-26T10:51:01;9.40;99.90
35111;DHT22;21290;50.158;8.658;2024-02-26T10:53:29;9.50;99.90
35111;DHT22;21290;50.158;8.658;2024-02-26T10:56:04;9.60;99.90
35111;DHT22;21290;50.158;8.658;2024-02-26T10:58:32;9.80;99.90
35111;DHT22;21290;50.158;8.658;2024-02-26T11:00:59;9.80;99.90
35111;DHT22;21290;50.158;8.658;2024-02-26T11:03:28;9.80;99.90
35111;DHT22;21290;50.158;8.658;2024-02-26T11:05:59;9.90;99.90
35111;DHT22;21290;50.158;8.658;2024-02-26T11:08:28;10.10;99.90
35111;DHT22;21290;50.158;8.658;2024-02-26T11:10:55;10.20;99.90
35111;DHT22;21290;50.158;8.658;2024-02-26T11:13:27;10.40;99.90
35111;DHT22;21290;50.158;8.658;2024-02-26T11:15:56;10.50;99.90
35111;DHT22;21290;50.158;8.658;2024-02-26T11:18:26;10.50;99.90
35111;DHT22;21290;50.158;8.658;2024-02-26T11:20:54;10.50;99.90
35111;DHT22;21290;50.158;8.658;2024-02-26T11:23:23;10.60;99.90
35111;DHT22;21290;50.158;8.658;2024-02-26T11:25:55;10.80;99.90
35111;DHT22;21290;50.158;8.658;2024-02-26T11:28:25;11.10;99.90
35111;DHT22;21290;50.158;8.658;2024-02-26T11:30:54;11.30;99.90
35111;DHT22;21290;50.158;8.658;2024-02-26T11:33:21;11.60;99.90
35111;DHT22;21290;50.158;8.658;2024-02-26T11:35:48;12.10;99.90
35111;DHT22;21290;50.158;8.658;2024-02-26T11:38:24;12.50;99.90
35111;DHT22;21290;50.158;8.658;2024-02-26T11:40:53;12.90;99.90
35111;DHT22;21290;50.158;8.658;2024-02-26T11:44:09;13.50;99.90
35111;DHT22;21290;50.158;8.658;2024-02-26T11:46:38;13.90;99.90
35111;DHT22;21290;50.158;8.658;2024-02-26T11:51:55;13.70;99.90
35111;DHT22;21290;50.158;8.658;2024-02-26T11:57:30;13.80;99.90
35111;DHT22;21290;50.158;8.658;2024-02-26T12:00:12;13.90;99.90
35111;DHT22;21290;50.158;8.658;2024-02-26T12:05:16;14.00;99.90
35111;DHT22;21290;50.158;8.658;2024-02-26T12:07:49;13.90;99.90
35111;DHT22;21290;50.158;8.658;2024-02-26T12:10:28;13.70;99.90
35111;DHT22;21290;50.158;8.658;2024-02-26T12:13:06;13.70;99.90
35111;DHT22;21290;50.158;8.658;2024-02-26T12:15:37;13.70;99.90
35111;DHT22;21290;50.158;8.658;2024-02-26T12:18:06;13.70;99.90
35111;DHT22;21290;50.158;8.658;2024-02-26T12:20:33;14.00;99.90
35111;DHT22;21290;50.158;8.658;2024-02-26T12:23:02;14.10;99.90
35111;DHT22;21290;50.158;8.658;2024-02-26T12:25:30;14.10;99.90
35111;DHT22;21290;50.158;8.658;2024-02-26T12:27:58;14.10;99.90
35111;DHT22;21290;50.158;8.658;2024-02-26T12:30:25;14.10;99.90
35111;DHT22;21290;50.158;8.658;2024-02-26T12:32:53;14.30;99.90
35111;DHT22;21290;50.158;8.658;2024-02-26T12:35:24;14.40;99.90
35111;DHT22;21290;50.158;8.658;2024-02-26T12:37:52;14.70;99.90
35111;DHT22;21290;50.158;8.658;2024-02-26T12:40:20;14.70;99.90
35111;DHT22;21290;50.158;8.658;2024-02-26T12:42:47;14.70;99.90
35111;DHT22;21290;50.158;8.658;2024-02-26T12:45:14;14.60;99.90
35111;DHT22;21290;50.158;8.658;2024-02-26T12:47:43;14.50;99.90
35111;DHT22;21290;50.158;8.658;2024-02-26T12:50:10;14.30;99.90
35111;DHT22;21290;50.158;8.658;2024-02-26T12:52:45;14.10;99.90
35111;DHT22;21290;50.158;8.658;2024-02-26T12:55:18;13.90;99.90
35111;DHT22;21290;50.158;8.658;2024-02-26T12:57:46;13.40;99.90
35111;DHT22;21290;50.158;8.658;2024-02-26T13:00:16;13.40;99.90
35111;DHT22;21290;50.158;8.658;2024-02-26T13:02:46;13.20;99.90
35111;DHT22;21290;50.158;8.658;2024-02-26T13:05:14;13.20;99.90
35111;DHT22;21290;50.158;8.658;2024-02-26T13:07:46;13.10;99.90
35111;DHT22;21290;50.158;8.658;2024-02-26T13:10:14;13.30;99.90
35111;DHT22;21290;50.158;8.658;2024-02-26T13:12:48;13.30;99.90
35111;DHT22;21290;50.158;8.658;2024-02-26T13:15:18;13.30;99.90
35111;DHT22;21290;50.158;8.658;2024-02-26T13:17:46;13.40;99.90
35111;DHT22;21290;50.158;8.658;2024-02-26T13:20:24;13.40;99.90
35111;DHT22;21290;50.158;8.658;2024-02-26T13:22:51;13.40;99.90
35111;DHT22;21290;50.158;8.658;2024-02-26T13:25:21;13.50;99.90
35111;DHT22;21290;50.158;8.658;2024-02-26T13:27:48;13.70;99.90
35111;DHT22;21290;50.158;8.658;2024-02-26T13:30:16;13.70;99.90
35111;DHT22;21290;50.158;8.658;2024-02-26T13:32:43;13.80;99.90
35111;DHT22;21290;50.158;8.658;2024-02-26T13:35:11;13.80;99.90
35111;DHT22;21290;50.158;8.658;2024-02-26T13:37:39;13.60;99.90
35111;DHT22;21290;50.158;8.658;2024-02-26T13:40:08;13.50;99.90
35111;DHT22;21290;50.158;8.658;2024-02-26T13:42:40;13.20;99.90
35111;DHT22;21290;50.158;8.658;2024-02-26T13:45:07;13.20;99.90
35111;DHT22;21290;50.158;8.658;2024-02-26T13:47:35;13.10;99.90
35111;DHT22;21290;50.158;8.658;2024-02-26T13:50:03;13.00;99.90
35111;DHT22;21290;50.158;8.658;2024-02-26T13:52:30;13.00;99.90
35111;DHT22;21290;50.158;8.658;2024-02-26T13:54:59;13.20;99.90
35111;DHT22;21290;50.158;8.658;2024-02-26T13:57:26;13.30;99.90
35111;DHT22;21290;50.158;8.658;2024-02-26T13:59:54;13.50;99.90
35111;DHT22;21290;50.158;8.658;2024-02-26T14:02:22;13.50;99.90
35111;DHT22;21290;50.158;8.658;2024-02-26T14:04:49;13.60;99.90
35111;DHT22;21290;50.158;8.658;2024-02-26T14:07:15;13.50;99.90
35111;DHT22;21290;50.158;8.658;2024-02-26T14:09:44;13.40;99.90
35111;DHT22;21290;50.158;8.658;2024-02-26T14:12:16;13.10;99.90
35111;DHT22;21290;50.158;8.658;2024-02-26T14:14:48;13.00;99.90
35111;DHT22;21290;50.158;8.658;2024-02-26T14:17:15;12.90;99.90
35111;DHT22;21290;50.158;8.658;2024-02-26T14:19:42;12.90;99.90
35111;DHT22;21290;50.158;8.658;2024-02-26T14:22:14;12.90;99.90
35111;DHT22;21290;50.158;8.658;2024-02-26T14:24:44;12.80;99.90
35111;DHT22;21290;50.158;8.658;2024-02-26T14:27:13;12.70;99.90
35111;DHT22;21290;50.158;8.658;2024-02-26T14:29:44;12.70;99.90
35111;DHT22;21290;50.158;8.658;2024-02-26T14:32:10;12.80;99.90
35111;DHT22;21290;50.158;8.658;2024-02-26T14:34:37;12.80;99.90
35111;DHT22;21290;50.158;8.658;2024-02-26T14:37:04;12.90;99.90
35111;DHT22;21290;50.158;8.658;2024-02-26T14:39:34;12.80;99.90
35111;DHT22;21290;50.158;8.658;2024-02-26T14:42:01;12.80;99.90
35111;DHT22;21290;50.158;8.658;2024-02-26T14:44:28;12.70;99.90
35111;DHT22;21290;50.158;8.658;2024-02-26T14:46:55;12.70;99.90
35111;DHT22;21290;50.158;8.658;2024-02-26T14:49:21;12.60;99.90
35111;DHT22;21290;50.158;8.658;2024-02-26T14:51:49;12.70;99.90
35111;DHT22;21290;50.158;8.658;2024-02-26T14:54:15;12.50;99.90
35111;DHT22;21290;50.158;8.658;2024-02-26T14:56:42;12.50;99.90
35111;DHT22;21290;50.158;8.658;2024-02-26T14:59:09;12.50;99.90
35111;DHT22;21290;50.158;8.658;2024-02-26T15:01:37;12.40;99.90
35111;DHT22;21290;50.158;8.658;2024-02-26T15:04:04;12.40;99.90
35111;DHT22;21290;50.158;8.658;2024-02-26T15:06:31;12.30;99.90
35111;DHT22;21290;50.158;8.658;2024-02-26T15:08:57;12.20;99.90
35111;DHT22;21290;50.158;8.658;2024-02-26T15:11:24;12.10;99.90
35111;DHT22;21290;50.158;8.658;2024-02-26T15:13:52;12.10;99.90
35111;DHT22;21290;50.158;8.658;2024-02-26T15:16:19;12.00;99.90
35111;DHT22;21290;50.158;8.658;2024-02-26T15:18:47;12.00;99.90
35111;DHT22;21290;50.158;8.658;2024-02-26T15:21:14;12.00;99.90
35111;DHT22;21290;50.158;8.658;2024-02-26T15:23:44;12.10;99.90
35111;DHT22;21290;50.158;8.658;2024-02-26T15:26:27;12.00;99.90
35111;DHT22;21290;50.158;8.658;2024-02-26T15:28:54;12.00;99.90
35111;DHT22;21290;50.158;8.658;2024-02-26T15:31:21;12.00;99.90
35111;DHT22;21290;50.158;8.658;2024-02-26T15:33:47;11.90;99.90
35111;DHT22;21290;50.158;8.658;2024-02-26T15:36:14;11.80;99.90
35111;DHT22;21290;50.158;8.658;2024-02-26T15:38:41;11.80;99.90
35111;DHT22;21290;50.158;8.658;2024-02-26T15:41:12;11.90;99.90
35111;DHT22;21290;50.158;8.658;2024-02-26T15:43:39;11.90;99.90
35111;DHT22;21290;50.158;8.658;2024-02-26T15:46:06;11.90;99.90
35111;DHT22;21290;50.158;8.658;2024-02-26T15:48:33;11.90;99.90
35111;DHT22;21290;50.158;8.658;2024-02-26T15:51:01;11.90;99.90
35111;DHT22;21290;50.158;8.658;2024-02-26T15:53:28;11.80;99.90
35111;DHT22;21290;50.158;8.658;2024-02-26T15:55:55;11.70;99.90